Time;durP1;ratioP1;P1;durP2;ratioP2;P2;SDS_P1;SDS_P2;PMS_P1;PMS_P2;Temp;Humidity;BMP_temperature;BMP_pressure;BME280_temperature;BME280_humidity;BME280_pressure;Samples;Min_cycle;Max_cycle;Signal;HPM_P1;HPM_P2
2021/03/03 00:01:30;;;;;;;3.00;2.55;;;23.40;48.80;;;;;;5072276;28;20114;-43
2021/03/03 00:03:57;;;;;;;3.00;2.70;;;23.40;48.80;;;;;;5073510;28;20056;-43
2021/03/03 00:06:23;;;;;;;3.60;2.60;;;23.40;48.80;;;;;;5072575;28;20083;-46
2021/03/03 00:08:50;;;;;;;3.58;2.78;;;23.40;48.80;;;;;;5073433;28;20049;-43
2021/03/03 00:11:16;;;;;;;2.83;2.42;;;23.30;48.80;;;;;;5073061;28;20056;-44
2021/03/03 00:13:43;;;;;;;3.00;2.58;;;23.30;48.80;;;;;;5073152;28;20040;-44
2021/03/03 00:16:10;;;;;;;3.78;2.72;;;23.30;48.80;;;;;;5073363;28;20041;-44
2021/03/03 00:18:36;;;;;;;3.55;2.85;;;23.30;48.80;;;;;;5073203;28;20048;-43
2021/03/03 00:21:03;;;;;;;3.33;2.63;;;23.40;48.80;;;;;;5073218;28;20048;-43
2021/03/03 00:23:30;;;;;;;3.03;2.45;;;23.30;49.00;;;;;;5072170;28;20106;-44
2021/03/03 00:25:56;;;;;;;3.60;2.85;;;23.40;48.90;;;;;;5072909;28;20105;-43
2021/03/03 00:28:23;;;;;;;3.42;2.72;;;23.30;48.80;;;;;;5072944;28;20049;-43
2021/03/03 00:30:50;;;;;;;3.50;2.88;;;23.30;48.80;;;;;;5072561;28;20052;-44
2021/03/03 00:33:16;;;;;;;3.35;2.55;;;23.30;48.80;;;;;;5073115;28;20072;-46
2021/03/03 00:35:43;;;;;;;3.22;2.60;;;23.30;48.80;;;;;;5073045;28;20044;-43
2021/03/03 00:38:09;;;;;;;3.40;2.72;;;23.30;48.80;;;;;;5071847;28;20056;-45
2021/03/03 00:40:36;;;;;;;3.35;2.90;;;23.40;48.80;;;;;;5072629;28;20082;-44
2021/03/03 00:43:03;;;;;;;3.28;2.70;;;23.40;48.80;;;;;;5072960;28;20412;-45
2021/03/03 00:45:30;;;;;;;3.40;2.83;;;23.30;48.80;;;;;;5072485;28;20071;-43
2021/03/03 00:47:57;;;;;;;3.35;2.45;;;23.30;48.80;;;;;;5072281;28;20049;-43
2021/03/03 00:50:24;;;;;;;4.20;3.08;;;23.30;48.80;;;;;;5072803;28;20128;-43
2021/03/03 00:52:51;;;;;;;2.80;2.42;;;23.30;48.80;;;;;;5072063;28;20040;-44
2021/03/03 00:55:17;;;;;;;2.85;2.58;;;23.30;48.80;;;;;;5071554;28;20076;-44
2021/03/03 00:57:44;;;;;;;3.53;2.67;;;23.30;48.80;;;;;;5072609;28;20530;-44
2021/03/03 01:00:31;;;;;;;2.97;2.67;;;23.30;48.80;;;;;;5072435;28;20123;-44
2021/03/03 01:02:58;;;;;;;3.38;2.90;;;23.30;48.80;;;;;;5072312;28;20098;-45
2021/03/03 01:05:25;;;;;;;3.17;2.55;;;23.30;48.80;;;;;;5072310;28;20091;-45
2021/03/03 01:07:52;;;;;;;4.13;2.78;;;23.30;48.80;;;;;;5071873;28;20103;-46
2021/03/03 01:10:19;;;;;;;3.58;2.60;;;23.30;48.80;;;;;;5072553;28;20404;-43
2021/03/03 01:12:45;;;;;;;4.22;2.92;;;23.30;48.80;;;;;;5071355;28;20041;-46
2021/03/03 01:15:12;;;;;;;3.17;2.60;;;23.30;48.80;;;;;;5070888;28;20053;-48
2021/03/03 01:17:39;;;;;;;2.90;2.35;;;23.30;48.80;;;;;;5072161;28;20044;-45
2021/03/03 01:20:07;;;;;;;3.83;2.70;;;23.30;49.00;;;;;;5072192;28;20139;-45
2021/03/03 01:22:34;;;;;;;3.78;2.88;;;23.30;48.80;;;;;;5071781;28;20389;-50
2021/03/03 01:25:00;;;;;;;2.50;2.30;;;23.30;48.80;;;;;;5072072;28;20059;-48
2021/03/03 01:27:27;;;;;;;3.10;2.47;;;23.30;48.80;;;;;;5072101;28;20413;-45
2021/03/03 01:29:54;;;;;;;3.67;2.53;;;23.30;48.80;;;;;;5072309;28;20055;-51
2021/03/03 01:32:20;;;;;;;3.63;2.90;;;23.30;48.80;;;;;;5072375;28;20102;-46
2021/03/03 01:34:47;;;;;;;3.17;2.58;;;23.30;48.80;;;;;;5072009;28;20560;-44
2021/03/03 01:37:14;;;;;;;4.07;3.20;;;23.20;48.70;;;;;;5071698;28;21513;-46
2021/03/03 01:39:41;;;;;;;3.72;2.78;;;23.30;48.80;;;;;;5076496;28;20059;-47
2021/03/03 01:42:08;;;;;;;3.10;2.80;;;23.20;48.70;;;;;;5076058;28;20052;-49
2021/03/03 01:44:34;;;;;;;2.97;2.55;;;23.20;48.70;;;;;;5076031;28;20055;-43
2021/03/03 01:47:01;;;;;;;3.60;3.15;;;23.30;48.80;;;;;;5075761;28;20105;-43
2021/03/03 01:49:28;;;;;;;3.60;2.90;;;23.30;48.80;;;;;;5075522;28;20044;-44
2021/03/03 01:51:54;;;;;;;3.22;2.60;;;23.30;48.80;;;;;;5075942;28;20488;-45
2021/03/03 01:54:21;;;;;;;4.68;3.10;;;23.30;48.80;;;;;;5075108;28;20044;-48
2021/03/03 01:56:48;;;;;;;3.33;2.92;;;23.30;48.80;;;;;;5076100;28;20047;-44
2021/03/03 01:59:14;;;;;;;3.28;2.88;;;23.30;48.80;;;;;;5074555;28;20419;-43
2021/03/03 02:01:41;;;;;;;3.28;2.63;;;23.20;48.70;;;;;;5074312;28;20074;-44
2021/03/03 02:04:08;;;;;;;2.90;2.58;;;23.20;49.30;;;;;;5074734;28;20057;-45
2021/03/03 02:06:59;;;;;;;3.65;2.85;;;23.20;48.70;;;;;;5075856;28;20110;-43
2021/03/03 02:09:45;;;;;;;4.60;2.88;;;23.20;48.70;;;;;;5074669;28;20080;-46
2021/03/03 02:12:19;;;;;;;3.90;2.90;;;23.20;48.70;;;;;;5075575;28;20424;-45
2021/03/03 02:14:53;;;;;;;4.72;2.97;;;23.20;48.80;;;;;;5075343;28;20044;-44
2021/03/03 02:17:23;;;;;;;3.95;3.10;;;23.20;48.80;;;;;;5075727;28;20048;-45
2021/03/03 02:19:50;;;;;;;3.20;2.70;;;23.20;48.80;;;;;;5075312;28;20656;-43
2021/03/03 02:22:26;;;;;;;3.15;2.65;;;23.20;48.80;;;;;;5075616;28;20429;-44
2021/03/03 02:25:28;;;;;;;3.78;3.00;;;23.20;48.80;;;;;;5075271;28;20080;-43
2021/03/03 02:28:00;;;;;;;3.58;3.15;;;23.20;48.80;;;;;;5075522;28;20083;-43
2021/03/03 02:30:28;;;;;;;3.22;2.72;;;23.20;48.80;;;;;;5075216;28;20040;-44
2021/03/03 02:32:57;;;;;;;3.67;3.00;;;23.20;48.80;;;;;;5075068;28;20048;-44
2021/03/03 02:35:26;;;;;;;3.83;3.08;;;23.20;48.80;;;;;;5075281;28;20106;-47
2021/03/03 02:37:53;;;;;;;3.78;2.78;;;23.20;48.80;;;;;;5074067;28;20052;-44
2021/03/03 02:40:20;;;;;;;4.10;2.88;;;23.20;48.80;;;;;;5074066;28;20126;-46
2021/03/03 02:42:48;;;;;;;3.53;2.78;;;23.20;48.80;;;;;;5075299;28;20099;-43
2021/03/03 02:45:18;;;;;;;4.28;3.10;;;23.20;48.80;;;;;;5075007;28;20048;-44
2021/03/03 02:47:46;;;;;;;3.83;2.95;;;23.20;48.80;;;;;;5074858;28;20115;-44
2021/03/03 02:50:14;;;;;;;3.35;3.05;;;23.20;48.80;;;;;;5075011;28;20075;-44
2021/03/03 02:52:57;;;;;;;4.20;3.10;;;23.20;48.80;;;;;;5075035;28;20123;-43
2021/03/03 02:55:29;;;;;;;3.53;2.83;;;23.20;48.80;;;;;;5074793;28;20074;-44
2021/03/03 02:57:57;;;;;;;3.67;2.97;;;23.20;48.80;;;;;;5074953;28;20436;-49
2021/03/03 03:00:37;;;;;;;4.18;2.95;;;23.20;48.80;;;;;;5074785;28;20085;-46
2021/03/03 03:03:15;;;;;;;3.78;2.90;;;23.20;48.80;;;;;;5074935;28;20059;-45
2021/03/03 03:05:46;;;;;;;4.13;3.00;;;23.20;48.80;;;;;;5074604;28;20053;-47
2021/03/03 03:08:17;;;;;;;3.67;2.97;;;23.20;48.80;;;;;;5073875;28;20061;-47
2021/03/03 03:10:45;;;;;;;3.92;3.05;;;23.20;48.80;;;;;;5074706;28;20083;-47
2021/03/03 03:13:17;;;;;;;4.65;2.90;;;23.20;48.80;;;;;;5074326;28;20080;-44
2021/03/03 03:15:45;;;;;;;4.22;3.60;;;23.20;48.80;;;;;;5074529;28;20052;-47
2021/03/03 03:18:19;;;;;;;4.00;3.17;;;23.10;48.70;;;;;;5074185;28;20055;-46
2021/03/03 03:20:47;;;;;;;4.00;2.83;;;23.20;48.80;;;;;;5074662;28;20080;-45
2021/03/03 03:23:17;;;;;;;3.40;2.83;;;23.20;48.80;;;;;;5073143;28;20311;-50
2021/03/03 03:25:46;;;;;;;4.15;3.10;;;23.10;48.70;;;;;;5074225;28;20619;-45
2021/03/03 03:28:13;;;;;;;3.92;3.10;;;23.20;48.80;;;;;;5074046;28;20548;-43
2021/03/03 03:30:40;;;;;;;3.70;3.08;;;23.20;48.80;;;;;;5072705;28;20049;-44
2021/03/03 03:33:08;;;;;;;3.90;3.20;;;23.10;48.70;;;;;;5073980;28;20408;-44
2021/03/03 03:35:36;;;;;;;3.80;3.15;;;23.10;48.70;;;;;;5074249;28;20048;-43
2021/03/03 03:38:03;;;;;;;3.55;2.75;;;23.10;48.70;;;;;;5073785;28;20057;-43
2021/03/03 03:40:30;;;;;;;5.10;2.88;;;23.10;48.70;;;;;;5073101;28;20102;-47
2021/03/03 03:43:01;;;;;;;4.00;2.85;;;23.10;48.70;;;;;;5072876;28;20044;-43
2021/03/03 03:45:28;;;;;;;3.75;3.00;;;23.10;48.70;;;;;;5073848;28;20078;-44
2021/03/03 03:47:58;;;;;;;3.75;3.10;;;23.20;48.80;;;;;;5073641;28;20044;-43
2021/03/03 03:50:26;;;;;;;3.85;3.33;;;23.10;48.70;;;;;;5073613;28;20136;-46
2021/03/03 03:52:54;;;;;;;3.70;3.00;;;23.10;48.70;;;;;;5073911;28;20041;-43
2021/03/03 03:55:38;;;;;;;3.10;2.70;;;23.10;48.70;;;;;;5071890;28;20045;-43
2021/03/03 03:58:06;;;;;;;3.75;3.05;;;23.10;48.70;;;;;;5072587;28;20459;-44
2021/03/03 04:00:33;;;;;;;3.25;2.55;;;23.10;48.80;;;;;;5072502;28;20048;-44
2021/03/03 04:03:00;;;;;;;3.90;3.00;;;23.10;48.70;;;;;;5073634;28;20091;-44
2021/03/03 04:05:27;;;;;;;3.83;2.92;;;23.10;48.70;;;;;;5073204;28;20131;-44
2021/03/03 04:07:55;;;;;;;3.38;2.78;;;23.10;48.70;;;;;;5073501;28;20076;-44
2021/03/03 04:10:27;;;;;;;3.67;2.75;;;23.10;48.70;;;;;;5072273;28;20048;-44
2021/03/03 04:12:54;;;;;;;4.57;3.03;;;23.10;48.70;;;;;;5072347;28;20098;-43
2021/03/03 04:15:22;;;;;;;3.33;2.85;;;23.10;48.70;;;;;;5073200;28;20513;-43
2021/03/03 04:17:51;;;;;;;4.88;3.28;;;23.10;48.70;;;;;;5072956;28;20102;-44
2021/03/03 04:20:19;;;;;;;3.90;3.22;;;23.10;48.70;;;;;;5073066;28;20095;-44
2021/03/03 04:22:46;;;;;;;3.88;3.08;;;23.10;48.70;;;;;;5073308;28;20052;-43
2021/03/03 04:25:16;;;;;;;3.92;2.97;;;23.10;48.70;;;;;;5072323;28;20098;-45
2021/03/03 04:27:43;;;;;;;3.72;3.10;;;23.10;48.70;;;;;;5073122;28;20044;-46
2021/03/03 04:30:15;;;;;;;4.25;3.33;;;23.10;48.70;;;;;;5072979;28;20044;-44
2021/03/03 04:32:46;;;;;;;3.85;3.00;;;23.10;48.70;;;;;;5072803;28;20045;-44
2021/03/03 04:35:13;;;;;;;3.60;2.90;;;23.10;48.70;;;;;;5072941;28;20119;-46
2021/03/03 04:37:40;;;;;;;3.65;3.08;;;23.10;48.70;;;;;;5072607;28;20106;-45
2021/03/03 04:40:08;;;;;;;3.95;2.90;;;23.10;48.70;;;;;;5072161;28;20053;-46
2021/03/03 04:42:36;;;;;;;3.83;3.05;;;23.10;48.80;;;;;;5073205;28;20048;-44
2021/03/03 04:45:05;;;;;;;3.55;2.90;;;23.10;48.70;;;;;;5072749;28;20106;-43
2021/03/03 04:47:31;;;;;;;3.70;3.10;;;23.10;48.70;;;;;;5072859;28;20049;-45
2021/03/03 04:49:58;;;;;;;3.40;2.90;;;23.00;48.60;;;;;;5072405;28;20049;-43
2021/03/03 04:52:25;;;;;;;3.83;3.15;;;23.10;48.70;;;;;;5071583;28;20128;-45
2021/03/03 04:54:52;;;;;;;3.67;3.03;;;23.00;48.60;;;;;;5072091;28;20066;-44
2021/03/03 04:57:19;;;;;;;3.85;2.97;;;23.00;48.60;;;;;;5072782;28;20114;-44
2021/03/03 04:59:45;;;;;;;3.80;3.05;;;23.00;48.60;;;;;;5070943;28;20090;-47
2021/03/03 05:02:12;;;;;;;3.20;2.65;;;23.00;48.70;;;;;;5072610;28;20071;-44
2021/03/03 05:04:39;;;;;;;3.58;2.75;;;23.10;48.80;;;;;;5072410;28;20121;-44
2021/03/03 05:07:06;;;;;;;4.40;3.28;;;23.00;48.60;;;;;;5072629;28;20045;-44
2021/03/03 05:09:32;;;;;;;4.32;3.17;;;23.00;48.60;;;;;;5071780;28;20071;-43
2021/03/03 05:11:59;;;;;;;3.50;3.05;;;23.00;48.60;;;;;;5071621;28;20072;-43
2021/03/03 05:14:26;;;;;;;3.45;2.97;;;23.00;48.60;;;;;;5072132;28;20053;-44
2021/03/03 05:16:53;;;;;;;3.53;2.83;;;23.00;48.60;;;;;;5072622;28;20094;-44
2021/03/03 05:19:20;;;;;;;3.10;2.63;;;23.00;48.60;;;;;;5072243;28;20048;-44
2021/03/03 05:21:46;;;;;;;4.13;2.90;;;23.00;48.60;;;;;;5072376;28;20098;-43
2021/03/03 05:24:13;;;;;;;3.58;3.03;;;23.00;48.60;;;;;;5071708;28;20092;-45
2021/03/03 05:26:40;;;;;;;3.97;3.17;;;23.00;48.60;;;;;;5072095;28;20106;-43
2021/03/03 05:29:06;;;;;;;3.30;2.85;;;23.00;48.60;;;;;;5072068;28;20102;-43
2021/03/03 05:31:34;;;;;;;3.38;2.85;;;23.00;48.60;;;;;;5072182;28;20048;-43
2021/03/03 05:34:01;;;;;;;4.07;3.47;;;23.00;48.60;;;;;;5072010;28;20044;-45
2021/03/03 05:36:27;;;;;;;3.92;3.10;;;23.00;48.60;;;;;;5072361;28;20114;-44
2021/03/03 05:38:54;;;;;;;4.03;3.30;;;23.00;48.60;;;;;;5071869;28;20052;-45
2021/03/03 05:41:25;;;;;;;3.45;3.08;;;23.00;48.60;;;;;;5071467;28;20102;-43
2021/03/03 05:43:53;;;;;;;3.40;3.00;;;23.00;48.60;;;;;;5071035;28;20123;-43
2021/03/03 05:46:20;;;;;;;4.05;3.10;;;23.00;48.60;;;;;;5071726;28;20131;-47
2021/03/03 05:49:00;;;;;;;4.10;3.40;;;23.00;48.60;;;;;;5071771;28;20103;-44
2021/03/03 05:51:27;;;;;;;3.58;2.88;;;23.00;48.60;;;;;;5072162;28;20416;-44
2021/03/03 05:53:55;;;;;;;3.90;3.00;;;23.00;48.60;;;;;;5072188;28;20454;-45
2021/03/03 05:56:23;;;;;;;3.75;3.10;;;23.00;48.60;;;;;;5070721;28;20045;-44
2021/03/03 05:58:50;;;;;;;4.25;3.30;;;23.00;48.60;;;;;;5071951;28;20048;-44
2021/03/03 06:01:17;;;;;;;3.50;2.88;;;23.00;48.60;;;;;;5071924;28;20052;-48
2021/03/03 06:03:45;;;;;;;3.95;3.25;;;23.00;48.60;;;;;;5071703;28;20044;-43
2021/03/03 06:06:12;;;;;;;3.85;3.20;;;23.00;48.60;;;;;;5071738;28;20052;-45
2021/03/03 06:08:39;;;;;;;3.40;2.95;;;23.00;48.60;;;;;;5071885;28;20044;-45
2021/03/03 06:11:05;;;;;;;4.15;3.20;;;23.00;48.60;;;;;;5071223;28;20147;-45
2021/03/03 06:13:33;;;;;;;3.35;2.78;;;23.00;48.60;;;;;;5071944;28;20120;-44
2021/03/03 06:15:59;;;;;;;3.38;2.90;;;23.00;48.60;;;;;;5071742;28;20404;-43
2021/03/03 06:18:27;;;;;;;3.92;3.10;;;23.00;48.60;;;;;;5071890;28;20127;-44
2021/03/03 06:20:55;;;;;;;3.45;3.13;;;23.00;48.60;;;;;;5071488;28;20556;-44
2021/03/03 06:23:27;;;;;;;3.80;3.10;;;23.00;48.60;;;;;;5073294;28;20553;-48
2021/03/03 06:26:03;;;;;;;4.32;3.35;;;23.00;48.60;;;;;;5073135;28;20045;-43
2021/03/03 06:28:36;;;;;;;3.92;3.40;;;23.00;48.60;;;;;;5075309;28;20045;-43
2021/03/03 06:31:29;;;;;;;4.18;3.20;;;23.00;48.60;;;;;;5074015;28;20059;-44
2021/03/03 06:34:14;;;;;;;4.05;3.20;;;23.00;48.60;;;;;;5075018;28;20045;-43
2021/03/03 06:37:02;;;;;;;4.68;3.47;;;23.00;48.60;;;;;;5075049;28;20052;-45
2021/03/03 06:39:36;;;;;;;4.20;3.53;;;23.00;48.60;;;;;;5074842;28;20083;-47
2021/03/03 06:42:08;;;;;;;4.13;3.28;;;23.00;48.50;;;;;;5073890;28;20083;-44
2021/03/03 06:44:51;;;;;;;3.63;3.05;;;23.00;48.60;;;;;;5075169;28;20083;-45
2021/03/03 06:47:19;;;;;;;3.35;3.05;;;23.00;48.60;;;;;;5074024;28;20453;-46
2021/03/03 06:49:48;;;;;;;4.10;3.42;;;23.00;48.50;;;;;;5074990;28;20076;-43
2021/03/03 06:52:15;;;;;;;3.45;3.00;;;23.00;48.60;;;;;;5075068;28;20040;-44
2021/03/03 06:54:42;;;;;;;4.00;3.22;;;23.00;48.50;;;;;;5074742;28;20098;-45
2021/03/03 06:57:13;;;;;;;3.72;2.85;;;23.00;48.50;;;;;;5074227;28;20074;-43
2021/03/03 06:59:44;;;;;;;3.25;2.60;;;23.00;48.50;;;;;;5074343;28;20086;-44
2021/03/03 07:02:13;;;;;;;3.85;3.28;;;23.00;48.50;;;;;;5074223;28;20455;-43
2021/03/03 07:04:42;;;;;;;3.35;2.90;;;23.00;48.50;;;;;;5074737;28;20048;-44
2021/03/03 07:07:11;;;;;;;3.83;3.30;;;23.10;48.60;;;;;;5074665;28;20541;-44
2021/03/03 07:09:42;;;;;;;3.72;3.22;;;23.00;48.50;;;;;;5074214;28;20040;-45
2021/03/03 07:12:20;;;;;;;3.90;3.33;;;23.00;48.50;;;;;;5073885;28;20132;-44
2021/03/03 07:14:57;;;;;;;3.45;3.10;;;23.00;48.50;;;;;;5074470;28;20458;-45
2021/03/03 07:17:34;;;;;;;4.25;3.20;;;23.00;48.50;;;;;;5074223;28;20080;-45
2021/03/03 07:20:05;;;;;;;3.83;3.20;;;23.00;48.50;;;;;;5074577;28;20443;-44
2021/03/03 07:22:34;;;;;;;3.65;3.33;;;23.00;48.50;;;;;;5074164;28;20045;-44
2021/03/03 07:25:06;;;;;;;3.83;3.40;;;23.00;48.50;;;;;;5074402;28;20056;-44
2021/03/03 07:27:34;;;;;;;3.30;2.70;;;23.10;48.60;;;;;;5073410;28;20428;-45
2021/03/03 07:30:08;;;;;;;3.35;3.05;;;23.00;48.50;;;;;;5073603;28;20080;-45
2021/03/03 07:32:35;;;;;;;3.22;2.92;;;23.00;48.50;;;;;;5073930;28;20488;-43
2021/03/03 07:35:05;;;;;;;3.97;3.10;;;23.00;48.50;;;;;;5072662;28;20045;-46
2021/03/03 07:37:40;;;;;;;3.58;3.10;;;23.10;48.60;;;;;;5073395;28;20562;-45
2021/03/03 07:40:10;;;;;;;4.78;3.25;;;23.00;48.50;;;;;;5073815;28;20052;-44
2021/03/03 07:42:38;;;;;;;3.75;3.10;;;23.10;48.60;;;;;;5072256;28;20055;-45
2021/03/03 07:45:13;;;;;;;3.67;3.03;;;23.10;48.60;;;;;;5073443;28;20543;-47
2021/03/03 07:47:42;;;;;;;3.72;3.15;;;23.00;49.10;;;;;;5073906;28;20052;-46
2021/03/03 07:50:22;;;;;;;3.35;3.05;;;23.10;48.60;;;;;;5073802;28;20408;-43
2021/03/03 07:52:53;;;;;;;5.55;3.28;;;23.00;48.40;;;;;;5073665;28;20040;-48
2021/03/03 07:55:21;;;;;;;4.13;3.55;;;23.10;48.60;;;;;;5073705;28;20045;-49
2021/03/03 07:57:55;;;;;;;3.35;3.05;;;23.10;48.50;;;;;;5072804;28;20094;-49
2021/03/03 08:00:32;;;;;;;3.85;2.92;;;23.10;48.50;;;;;;5073182;28;20055;-49
2021/03/03 08:03:06;;;;;;;4.22;3.28;;;23.10;48.50;;;;;;5073799;28;20052;-45
2021/03/03 08:05:52;;;;;;;3.78;3.08;;;23.10;48.50;;;;;;5073175;28;20048;-44
2021/03/03 08:08:28;;;;;;;3.80;3.10;;;23.10;48.50;;;;;;5073408;28;20048;-45
2021/03/03 08:10:58;;;;;;;3.80;3.25;;;23.10;48.50;;;;;;5073029;28;20053;-46
2021/03/03 08:13:30;;;;;;;3.90;3.42;;;23.10;48.50;;;;;;5071786;28;20041;-45
2021/03/03 08:16:08;;;;;;;3.13;2.83;;;23.10;48.50;;;;;;5073213;28;20044;-44
2021/03/03 08:18:51;;;;;;;2.95;2.63;;;23.10;48.50;;;;;;5073400;28;20048;-47
2021/03/03 08:21:18;;;;;;;4.05;3.10;;;23.10;48.50;;;;;;5072853;28;20049;-44
2021/03/03 08:23:53;;;;;;;3.85;3.30;;;23.10;48.50;;;;;;5073003;28;20052;-45
2021/03/03 08:26:19;;;;;;;4.32;3.33;;;23.10;48.50;;;;;;5072038;28;20052;-46
2021/03/03 08:28:53;;;;;;;4.00;3.22;;;23.10;48.50;;;;;;5073044;28;20134;-44
2021/03/03 08:31:24;;;;;;;3.60;3.10;;;23.10;48.50;;;;;;5072892;28;20044;-45
2021/03/03 08:33:52;;;;;;;4.30;3.20;;;23.10;48.50;;;;;;5072745;28;20487;-45
2021/03/03 08:36:24;;;;;;;3.70;3.05;;;23.10;48.40;;;;;;5072722;28;20049;-46
2021/03/03 08:38:54;;;;;;;3.55;2.97;;;23.10;48.40;;;;;;5072632;28;20056;-44
2021/03/03 08:41:30;;;;;;;3.20;2.75;;;23.10;48.40;;;;;;5072105;28;20091;-47
2021/03/03 08:44:09;;;;;;;3.85;3.03;;;23.10;48.40;;;;;;5072895;28;20542;-47
2021/03/03 08:46:39;;;;;;;3.70;2.97;;;23.10;48.40;;;;;;5070736;28;20080;-47
2021/03/03 08:49:07;;;;;;;3.88;2.95;;;23.10;48.40;;;;;;5072480;28;20059;-51
2021/03/03 08:51:33;;;;;;;3.42;3.13;;;23.10;48.40;;;;;;5072398;28;20098;-46
2021/03/03 08:54:11;;;;;;;4.00;2.85;;;23.20;48.50;;;;;;5072370;28;20051;-46
2021/03/03 08:56:42;;;;;;;3.40;2.80;;;23.10;48.40;;;;;;5070410;28;20051;-45
2021/03/03 08:59:33;;;;;;;3.53;3.13;;;23.10;48.40;;;;;;5072350;28;20048;-45
2021/03/03 09:02:20;;;;;;;3.40;2.88;;;23.10;49.00;;;;;;5072289;28;20048;-48
2021/03/03 09:04:53;;;;;;;3.45;2.67;;;23.10;48.40;;;;;;5072170;28;20080;-47
2021/03/03 09:07:22;;;;;;;3.72;3.08;;;23.10;48.40;;;;;;5072105;28;20052;-45
2021/03/03 09:09:54;;;;;;;3.53;2.85;;;23.20;48.40;;;;;;5072417;28;20041;-48
2021/03/03 09:12:27;;;;;;;3.63;3.20;;;23.20;48.40;;;;;;5071855;28;20048;-44
2021/03/03 09:14:57;;;;;;;4.07;3.10;;;23.10;48.40;;;;;;5072111;28;20106;-43
2021/03/03 09:17:27;;;;;;;3.92;2.92;;;23.20;48.40;;;;;;5072148;28;20045;-44
2021/03/03 09:20:00;;;;;;;4.35;3.40;;;23.20;48.40;;;;;;5072410;28;20049;-44
2021/03/03 09:22:30;;;;;;;3.90;3.03;;;23.20;48.40;;;;;;5071285;28;20048;-46
2021/03/03 09:25:08;;;;;;;4.13;3.35;;;23.20;48.40;;;;;;5072428;28;20048;-44
2021/03/03 09:27:35;;;;;;;3.95;2.95;;;23.20;48.40;;;;;;5071426;28;20060;-43
2021/03/03 09:30:02;;;;;;;3.53;3.10;;;23.20;48.40;;;;;;5071679;28;20048;-44
2021/03/03 09:32:33;;;;;;;3.65;3.10;;;23.20;48.40;;;;;;5071191;28;20055;-43
2021/03/03 09:35:04;;;;;;;3.38;2.83;;;23.20;48.40;;;;;;5072006;28;20447;-49
2021/03/03 09:37:37;;;;;;;3.40;2.92;;;23.20;48.40;;;;;;5070847;28;20052;-48
2021/03/03 09:40:11;;;;;;;3.75;3.10;;;23.20;48.30;;;;;;5072002;28;20119;-43
2021/03/03 09:42:40;;;;;;;4.15;3.10;;;23.20;48.30;;;;;;5071562;28;20048;-43
2021/03/03 09:45:21;;;;;;;3.55;3.10;;;23.20;48.30;;;;;;5071818;28;20048;-44
2021/03/03 09:47:48;;;;;;;4.18;3.03;;;23.20;48.30;;;;;;5071920;28;20466;-43
2021/03/03 09:50:26;;;;;;;3.65;3.10;;;23.20;48.30;;;;;;5072169;28;20094;-43
2021/03/03 09:52:57;;;;;;;3.10;2.75;;;23.20;48.30;;;;;;5072162;28;20511;-46
2021/03/03 09:55:32;;;;;;;;;;;23.20;48.30;;;;;;5072593;28;20098;-45
2021/03/03 09:57:59;;;;;;;3.88;3.10;;;23.20;48.30;;;;;;5072354;28;19934;-46
2021/03/03 10:00:40;;;;;;;2.90;2.60;;;23.20;48.30;;;;;;5075772;28;20475;-43
2021/03/03 10:03:13;;;;;;;3.88;3.30;;;23.20;48.40;;;;;;5075673;28;20052;-44
2021/03/03 10:05:41;;;;;;;4.28;3.22;;;23.20;48.40;;;;;;5075864;28;20556;-45
2021/03/03 10:08:11;;;;;;;3.55;2.70;;;23.20;48.30;;;;;;5075848;28;20098;-44
2021/03/03 10:10:45;;;;;;;3.50;2.80;;;23.20;48.30;;;;;;5074482;28;20114;-45
2021/03/03 10:13:21;;;;;;;3.67;3.22;;;23.20;48.30;;;;;;5074665;28;20087;-44
2021/03/03 10:15:48;;;;;;;3.75;2.92;;;23.20;48.30;;;;;;5075508;28;20125;-43
2021/03/03 10:18:14;;;;;;;2.90;2.50;;;23.20;48.30;;;;;;5075665;28;20041;-43
2021/03/03 10:20:44;;;;;;;4.07;3.05;;;23.20;48.30;;;;;;5075255;28;20040;-45
2021/03/03 10:23:17;;;;;;;3.90;3.03;;;23.20;48.30;;;;;;5075540;28;20044;-43
2021/03/03 10:26:05;;;;;;;4.38;2.92;;;23.20;48.30;;;;;;5075251;28;20499;-45
2021/03/03 10:28:32;;;;;;;3.58;3.00;;;23.30;48.40;;;;;;5074634;28;20071;-44
2021/03/03 10:31:04;;;;;;;3.88;3.13;;;23.20;48.20;;;;;;5074923;28;20091;-45
2021/03/03 10:33:36;;;;;;;3.85;3.17;;;23.20;48.20;;;;;;5075397;28;20094;-44
2021/03/03 10:36:15;;;;;;;3.72;3.03;;;23.20;48.20;;;;;;5075090;28;20044;-44
2021/03/03 10:38:48;;;;;;;4.10;3.25;;;23.30;48.30;;;;;;5074856;28;20057;-46
2021/03/03 10:41:25;;;;;;;3.22;2.72;;;23.20;48.20;;;;;;5075008;28;20098;-45
2021/03/03 10:43:52;;;;;;;3.80;2.85;;;23.20;48.20;;;;;;5074119;28;20049;-46
2021/03/03 10:46:21;;;;;;;4.03;2.92;;;23.30;48.30;;;;;;5074741;28;20048;-45
2021/03/03 10:48:50;;;;;;;3.65;2.95;;;23.30;48.30;;;;;;5074755;28;20059;-44
2021/03/03 10:51:20;;;;;;;3.65;2.92;;;23.30;48.30;;;;;;5074490;28;20060;-46
2021/03/03 10:53:53;;;;;;;4.05;3.00;;;23.30;48.30;;;;;;5074815;28;20118;-47
2021/03/03 10:56:30;;;;;;;3.45;3.15;;;23.30;48.30;;;;;;5074915;28;20044;-45
2021/03/03 10:58:58;;;;;;;3.78;2.97;;;23.30;48.30;;;;;;5074015;28;20095;-43
2021/03/03 11:01:42;;;;;;;3.85;3.13;;;23.30;48.20;;;;;;5074382;28;20045;-43
2021/03/03 11:04:09;;;;;;;3.90;2.90;;;23.30;48.30;;;;;;5074661;28;20056;-43
2021/03/03 11:06:36;;;;;;;3.33;2.80;;;23.30;48.20;;;;;;5074583;28;20101;-44
2021/03/03 11:09:09;;;;;;;3.47;3.03;;;23.30;48.20;;;;;;5074415;28;20041;-44
2021/03/03 11:11:49;;;;;;;3.67;2.70;;;23.30;48.20;;;;;;5074459;28;20510;-47
2021/03/03 11:14:17;;;;;;;3.88;3.00;;;23.30;48.30;;;;;;5073810;28;20049;-48
2021/03/03 11:16:45;;;;;;;3.10;2.80;;;23.30;48.20;;;;;;5074594;28;20404;-45
2021/03/03 11:19:12;;;;;;;4.05;3.08;;;23.30;48.30;;;;;;5072962;28;20056;-47
2021/03/03 11:21:39;;;;;;;3.17;2.58;;;23.30;48.30;;;;;;5074444;28;20056;-46
2021/03/03 11:24:07;;;;;;;3.53;2.97;;;23.30;48.30;;;;;;5074448;28;20455;-46
2021/03/03 11:26:36;;;;;;;3.20;2.78;;;23.30;48.30;;;;;;5074409;28;20122;-46
2021/03/03 11:29:04;;;;;;;3.30;2.65;;;23.30;48.30;;;;;;5072282;28;20050;-49
2021/03/03 11:31:31;;;;;;;3.58;3.05;;;23.30;48.20;;;;;;5073813;28;20040;-49
2021/03/03 11:33:58;;;;;;;3.60;3.03;;;23.30;48.20;;;;;;5073989;28;20040;-48
2021/03/03 11:36:25;;;;;;;4.53;3.17;;;23.30;48.20;;;;;;5074267;28;20040;-46
2021/03/03 11:38:54;;;;;;;3.47;2.88;;;23.30;48.20;;;;;;5073679;28;20505;-43
2021/03/03 11:41:21;;;;;;;3.10;2.55;;;23.30;48.20;;;;;;5072480;28;20070;-44
2021/03/03 11:43:48;;;;;;;3.13;2.70;;;23.30;48.20;;;;;;5072936;28;20056;-47
2021/03/03 11:46:15;;;;;;;3.42;2.85;;;23.30;48.20;;;;;;5073622;28;20055;-48
2021/03/03 11:48:42;;;;;;;3.17;2.50;;;23.30;48.20;;;;;;5073583;28;20500;-45
2021/03/03 11:51:08;;;;;;;3.40;2.70;;;23.30;48.20;;;;;;5073579;28;20496;-46
2021/03/03 11:53:36;;;;;;;2.80;2.58;;;23.30;48.20;;;;;;5073960;28;20437;-47
2021/03/03 11:56:03;;;;;;;3.67;3.00;;;23.30;48.20;;;;;;5073473;28;20044;-45
2021/03/03 11:58:30;;;;;;;3.38;2.70;;;23.30;48.10;;;;;;5071330;28;20626;-47
2021/03/03 12:01:04;;;;;;;3.97;2.90;;;23.30;48.20;;;;;;5073522;28;20051;-46
2021/03/03 12:03:31;;;;;;;3.25;2.72;;;23.30;48.10;;;;;;5073322;28;20348;-47
2021/03/03 12:05:58;;;;;;;3.30;2.70;;;23.40;48.20;;;;;;5071995;28;20123;-47
2021/03/03 12:08:25;;;;;;;3.20;2.78;;;23.30;48.20;;;;;;5071737;28;20546;-44
2021/03/03 12:10:52;;;;;;;2.90;2.58;;;23.30;48.10;;;;;;5073349;28;20045;-45
2021/03/03 12:13:18;;;;;;;3.50;2.78;;;23.30;48.20;;;;;;5072859;28;20412;-44
2021/03/03 12:15:45;;;;;;;3.78;3.03;;;23.30;48.10;;;;;;5072842;28;20508;-44
2021/03/03 12:18:12;;;;;;;2.75;2.15;;;23.40;48.20;;;;;;5073323;28;20444;-43
2021/03/03 12:20:39;;;;;;;2.88;2.47;;;23.30;48.10;;;;;;5071357;28;20056;-43
2021/03/03 12:23:06;;;;;;;3.65;2.88;;;23.30;48.10;;;;;;5072950;28;20052;-44
2021/03/03 12:25:33;;;;;;;2.80;2.47;;;23.30;48.10;;;;;;5073248;28;20076;-46
2021/03/03 12:28:00;;;;;;;3.17;2.53;;;23.30;48.10;;;;;;5073016;28;20059;-45
2021/03/03 12:30:27;;;;;;;3.13;2.70;;;23.30;48.10;;;;;;5072178;28;20452;-46
2021/03/03 12:32:54;;;;;;;3.30;2.72;;;23.30;48.10;;;;;;5073138;28;20049;-44
2021/03/03 12:35:22;;;;;;;6.85;2.53;;;23.40;48.20;;;;;;5073108;28;20102;-45
2021/03/03 12:37:48;;;;;;;2.85;2.53;;;23.30;48.10;;;;;;5072554;28;20049;-45
2021/03/03 12:40:15;;;;;;;3.85;2.83;;;23.30;48.10;;;;;;5073010;28;20052;-44
2021/03/03 12:42:42;;;;;;;3.80;2.90;;;23.30;48.10;;;;;;5072734;28;20388;-46
2021/03/03 12:45:09;;;;;;;3.17;2.60;;;23.40;48.20;;;;;;5071670;28;20045;-43
2021/03/03 12:47:36;;;;;;;3.38;2.85;;;23.40;48.20;;;;;;5072814;28;20515;-44
2021/03/03 12:50:05;;;;;;;3.50;2.55;;;23.40;48.20;;;;;;5072605;28;20127;-45
2021/03/03 12:52:32;;;;;;;3.78;2.97;;;23.40;48.20;;;;;;5072744;28;20598;-46
2021/03/03 12:54:59;;;;;;;4.93;2.90;;;23.40;48.20;;;;;;5071419;28;20040;-43
2021/03/03 12:57:25;;;;;;;3.00;2.53;;;23.40;48.20;;;;;;5072771;28;20048;-43
2021/03/03 12:59:52;;;;;;;2.95;2.65;;;23.40;48.20;;;;;;5071520;28;20052;-46
2021/03/03 13:02:19;;;;;;;4.15;3.10;;;23.40;48.20;;;;;;5072727;28;20106;-43